SDR28GR LEMH-EDDV
Flight info
| Callsign | SDR28GR |
|---|---|
| Flight time | N/A |
| Altitude | 36000 |
| Route | MORSS3C MORSS DCT OKSER DCT NOSTA DCT ABESI N851 LOKTA/N0448F370 DCT LOHRE/N0450F380 Z99 ELNAT P605 WERRA WERRA2R |
| Aircraft | A319/M-SDE3FGHIRWY/LB1 |
Departure
| Time | 2026-04-29 09:48 |
|---|---|
| Airport | Menorca Airport (LEMH) |
Arrival
| Time | N/A |
|---|---|
| Airport | Hannover Airport (EDDV) |
| Time | Latitude | Longitude | Altitude | Speed | Heading |
|---|---|---|---|---|---|
| 2026-04-29 09:36 | 39.86575 | 4.22430 | 286 ft | 0 kts | 99° |
| 2026-04-29 09:43 | 39.86579 | 4.22401 | 287 ft | 4 kts | 99° |
| 2026-04-29 09:43 | 39.86582 | 4.22373 | 288 ft | 4 kts | 104° |
| 2026-04-29 09:43 | 39.86595 | 4.22347 | 291 ft | 4 kts | 170° |
| 2026-04-29 09:43 | 39.86619 | 4.22349 | 291 ft | 3 kts | 189° |
| 2026-04-29 09:44 | 39.86622 | 4.22349 | 291 ft | 0 kts | 189° |
| 2026-04-29 09:45 | 39.86619 | 4.22349 | 291 ft | 2 kts | 189° |
| 2026-04-29 09:45 | 39.86554 | 4.22330 | 289 ft | 17 kts | 205° |
| 2026-04-29 09:45 | 39.86537 | 4.22182 | 296 ft | 16 kts | 233° |
| 2026-04-29 09:45 | 39.86407 | 4.22139 | 295 ft | 25 kts | 189° |
| 2026-04-29 09:46 | 39.86210 | 4.22095 | 294 ft | 30 kts | 190° |
| 2026-04-29 09:46 | 39.86009 | 4.22053 | 297 ft | 29 kts | 189° |
| 2026-04-29 09:46 | 39.85814 | 4.22012 | 294 ft | 29 kts | 188° |
| 2026-04-29 09:46 | 39.85608 | 4.21969 | 288 ft | 31 kts | 190° |
| 2026-04-29 09:47 | 39.85392 | 4.21924 | 283 ft | 32 kts | 189° |
| 2026-04-29 09:47 | 39.85171 | 4.21880 | 281 ft | 32 kts | 190° |
| 2026-04-29 09:47 | 39.85135 | 4.21728 | 284 ft | 16 kts | 275° |
| 2026-04-29 09:47 | 39.85186 | 4.21642 | 286 ft | 13 kts | 8° |
| 2026-04-29 09:48 | 39.85310 | 4.21670 | 285 ft | 38 kts | 9° |
| 2026-04-29 09:48 | 39.85818 | 4.21776 | 298 ft | 106 kts | 8° |
| 2026-04-29 09:48 | 39.86724 | 4.21953 | 393 ft | 146 kts | 13° |
| 2026-04-29 09:48 | 39.87707 | 4.22148 | 1012 ft | 141 kts | 14° |
| 2026-04-29 09:49 | 39.88671 | 4.22353 | 1551 ft | 138 kts | 16° |
| 2026-04-29 09:49 | 39.89710 | 4.22598 | 1818 ft | 169 kts | 15° |
| 2026-04-29 09:49 | 39.90992 | 4.22896 | 2051 ft | 203 kts | 14° |
| 2026-04-29 09:49 | 39.92472 | 4.23220 | 2393 ft | 228 kts | 13° |
| 2026-04-29 09:50 | 39.94127 | 4.23577 | 2845 ft | 254 kts | 12° |
| 2026-04-29 09:50 | 39.95924 | 4.23954 | 3684 ft | 267 kts | 11° |
| 2026-04-29 09:50 | 39.97794 | 4.24339 | 4587 ft | 276 kts | 11° |
| 2026-04-29 09:50 | 39.99714 | 4.24733 | 5487 ft | 283 kts | 10° |
| 2026-04-29 09:51 | 40.01676 | 4.25138 | 6349 ft | 288 kts | 10° |
| 2026-04-29 09:51 | 40.03661 | 4.25581 | 7170 ft | 292 kts | 10° |
| 2026-04-29 09:51 | 40.05673 | 4.26057 | 8010 ft | 296 kts | 11° |
| 2026-04-29 09:51 | 40.07709 | 4.26549 | 8860 ft | 299 kts | 10° |
| 2026-04-29 09:52 | 40.09768 | 4.27047 | 9706 ft | 303 kts | 10° |
| 2026-04-29 09:52 | 40.11867 | 4.27553 | 10315 ft | 315 kts | 10° |
| 2026-04-29 09:52 | 40.14103 | 4.28088 | 10563 ft | 338 kts | 10° |
| 2026-04-29 09:52 | 40.16473 | 4.28653 | 11032 ft | 351 kts | 10° |
| 2026-04-29 09:53 | 40.18899 | 4.29231 | 11728 ft | 357 kts | 10° |
| 2026-04-29 09:53 | 40.21319 | 4.29808 | 12456 ft | 360 kts | 10° |
| 2026-04-29 09:53 | 40.23799 | 4.30395 | 13195 ft | 364 kts | 9° |
| 2026-04-29 09:53 | 40.26302 | 4.30989 | 13897 ft | 367 kts | 10° |
| 2026-04-29 09:54 | 40.28824 | 4.31591 | 14535 ft | 371 kts | 10° |
| 2026-04-29 09:54 | 40.31375 | 4.32199 | 15186 ft | 374 kts | 10° |
| 2026-04-29 09:54 | 40.33951 | 4.32815 | 15817 ft | 378 kts | 10° |
| 2026-04-29 09:54 | 40.36552 | 4.33436 | 16443 ft | 382 kts | 10° |
| 2026-04-29 09:55 | 40.39175 | 4.34061 | 17071 ft | 385 kts | 10° |
| 2026-04-29 09:55 | 40.41821 | 4.34692 | 17705 ft | 388 kts | 10° |
| 2026-04-29 09:55 | 40.44495 | 4.35332 | 18311 ft | 392 kts | 10° |
| 2026-04-29 09:55 | 40.47174 | 4.36089 | 18843 ft | 396 kts | 17° |
| 2026-04-29 09:56 | 40.49734 | 4.37437 | 19392 ft | 398 kts | 28° |
| 2026-04-29 09:56 | 40.52075 | 4.39399 | 19924 ft | 401 kts | 39° |
| 2026-04-29 09:56 | 40.54143 | 4.41865 | 20461 ft | 403 kts | 45° |
| 2026-04-29 09:56 | 40.56165 | 4.44428 | 21004 ft | 406 kts | 45° |
| 2026-04-29 09:57 | 40.58208 | 4.47015 | 21536 ft | 409 kts | 45° |
| 2026-04-29 09:57 | 40.60274 | 4.49626 | 22055 ft | 413 kts | 45° |
| 2026-04-29 09:57 | 40.62350 | 4.52252 | 22581 ft | 416 kts | 45° |
| 2026-04-29 09:57 | 40.64442 | 4.54900 | 23087 ft | 419 kts | 45° |
| 2026-04-29 09:58 | 40.66549 | 4.57571 | 23575 ft | 422 kts | 45° |
| 2026-04-29 09:58 | 40.68641 | 4.60226 | 23981 ft | 425 kts | 45° |
| 2026-04-29 09:58 | 40.70770 | 4.62938 | 24392 ft | 427 kts | 45° |
| 2026-04-29 09:58 | 40.72910 | 4.65665 | 24804 ft | 429 kts | 45° |
| 2026-04-29 09:59 | 40.75062 | 4.68408 | 25200 ft | 431 kts | 45° |
| 2026-04-29 09:59 | 40.77224 | 4.71161 | 25596 ft | 433 kts | 45° |
| 2026-04-29 09:59 | 40.79398 | 4.73930 | 25988 ft | 435 kts | 45° |
| 2026-04-29 09:59 | 40.81582 | 4.76717 | 26371 ft | 438 kts | 45° |
| 2026-04-29 10:00 | 40.83774 | 4.79524 | 26750 ft | 440 kts | 45° |
| 2026-04-29 10:00 | 40.85973 | 4.82346 | 27139 ft | 442 kts | 45° |
| 2026-04-29 10:00 | 40.88183 | 4.85184 | 27520 ft | 444 kts | 45° |
| 2026-04-29 10:00 | 40.90405 | 4.88038 | 27893 ft | 447 kts | 45° |
| 2026-04-29 10:01 | 40.92639 | 4.90905 | 28269 ft | 449 kts | 45° |
| 2026-04-29 10:01 | 40.94884 | 4.93786 | 28630 ft | 451 kts | 45° |
| 2026-04-29 10:01 | 40.97141 | 4.96684 | 28974 ft | 453 kts | 45° |
| 2026-04-29 10:01 | 40.99410 | 4.99596 | 29320 ft | 456 kts | 45° |
| 2026-04-29 10:02 | 41.01688 | 5.02527 | 29650 ft | 458 kts | 45° |
| 2026-04-29 10:02 | 41.03973 | 5.05476 | 29982 ft | 460 kts | 45° |
| 2026-04-29 10:02 | 41.06269 | 5.08442 | 30264 ft | 462 kts | 45° |
| 2026-04-29 10:02 | 41.08543 | 5.11379 | 30550 ft | 463 kts | 45° |
| 2026-04-29 10:03 | 41.10852 | 5.14363 | 30857 ft | 464 kts | 45° |
| 2026-04-29 10:03 | 41.13164 | 5.17357 | 31157 ft | 465 kts | 45° |
| 2026-04-29 10:03 | 41.15476 | 5.20355 | 31515 ft | 464 kts | 45° |
| 2026-04-29 10:03 | 41.17777 | 5.23344 | 31952 ft | 462 kts | 45° |
| 2026-04-29 10:04 | 41.20067 | 5.26316 | 32394 ft | 459 kts | 45° |
| 2026-04-29 10:04 | 41.22343 | 5.29276 | 32830 ft | 457 kts | 45° |
| 2026-04-29 10:04 | 41.24605 | 5.32228 | 33248 ft | 455 kts | 45° |
| 2026-04-29 10:04 | 41.26857 | 5.35165 | 33692 ft | 452 kts | 45° |
| 2026-04-29 10:05 | 41.29092 | 5.38084 | 34117 ft | 450 kts | 45° |
| 2026-04-29 10:05 | 41.31327 | 5.41004 | 34442 ft | 450 kts | 45° |
| 2026-04-29 10:05 | 41.33561 | 5.43921 | 34724 ft | 450 kts | 44° |
| 2026-04-29 10:05 | 41.35796 | 5.46843 | 34977 ft | 451 kts | 44° |
| 2026-04-29 10:06 | 41.38036 | 5.49779 | 35219 ft | 453 kts | 44° |
| 2026-04-29 10:06 | 41.40280 | 5.52729 | 35460 ft | 454 kts | 44° |
| 2026-04-29 10:06 | 41.42529 | 5.55683 | 35693 ft | 455 kts | 44° |
| 2026-04-29 10:06 | 41.44784 | 5.58648 | 35905 ft | 456 kts | 44° |
| 2026-04-29 10:07 | 41.49271 | 5.64544 | 35999 ft | 459 kts | 44° |
| 2026-04-29 10:07 | 41.53861 | 5.70591 | 35999 ft | 466 kts | 44° |
| 2026-04-29 10:08 | 41.58479 | 5.76697 | 35998 ft | 467 kts | 44° |
| 2026-04-29 10:08 | 41.63094 | 5.82823 | 36001 ft | 468 kts | 44° |
| 2026-04-29 10:09 | 41.67710 | 5.88949 | 36005 ft | 468 kts | 44° |
| 2026-04-29 10:09 | 41.72328 | 5.95085 | 36013 ft | 468 kts | 44° |
| 2026-04-29 10:10 | 41.76161 | 6.00191 | 36009 ft | 468 kts | 44° |
| 2026-04-29 10:10 | 41.80767 | 6.06353 | 36014 ft | 468 kts | 44° |
| 2026-04-29 10:11 | 41.85374 | 6.12517 | 36014 ft | 468 kts | 44° |
| 2026-04-29 10:11 | 41.89974 | 6.18694 | 36014 ft | 468 kts | 44° |
| 2026-04-29 10:12 | 41.94576 | 6.24879 | 36006 ft | 468 kts | 44° |
| 2026-04-29 10:12 | 41.99175 | 6.31067 | 35998 ft | 468 kts | 44° |
| 2026-04-29 10:13 | 42.04316 | 6.36367 | 36006 ft | 466 kts | 28° |
| 2026-04-29 10:13 | 42.09972 | 6.40640 | 36010 ft | 466 kts | 28° |
| 2026-04-29 10:14 | 42.15626 | 6.44937 | 36002 ft | 467 kts | 28° |
| 2026-04-29 10:14 | 42.21280 | 6.49254 | 36005 ft | 467 kts | 28° |
| 2026-04-29 10:15 | 42.26901 | 6.53545 | 36006 ft | 467 kts | 28° |
| 2026-04-29 10:15 | 42.32561 | 6.57868 | 36012 ft | 468 kts | 28° |
| 2026-04-29 10:16 | 42.38228 | 6.62198 | 36009 ft | 468 kts | 28° |
| 2026-04-29 10:16 | 42.43889 | 6.66546 | 36018 ft | 468 kts | 28° |
| 2026-04-29 10:17 | 42.49550 | 6.70916 | 36008 ft | 468 kts | 28° |
| 2026-04-29 10:17 | 42.55217 | 6.75287 | 36020 ft | 468 kts | 28° |
| 2026-04-29 10:18 | 42.60876 | 6.79654 | 36020 ft | 469 kts | 28° |
| 2026-04-29 10:18 | 42.66541 | 6.84044 | 36024 ft | 469 kts | 28° |
| 2026-04-29 10:19 | 42.72206 | 6.88440 | 36028 ft | 469 kts | 28° |
| 2026-04-29 10:19 | 42.77872 | 6.92846 | 36032 ft | 469 kts | 28° |
| 2026-04-29 10:20 | 42.83495 | 6.97232 | 36033 ft | 469 kts | 28° |
| 2026-04-29 10:20 | 42.89157 | 7.01655 | 36038 ft | 469 kts | 28° |
| 2026-04-29 10:21 | 42.94817 | 7.06088 | 36041 ft | 469 kts | 28° |
| 2026-04-29 10:21 | 43.00481 | 7.10533 | 36042 ft | 469 kts | 28° |
| 2026-04-29 10:22 | 43.06143 | 7.14984 | 36048 ft | 469 kts | 28° |
| 2026-04-29 10:22 | 43.11796 | 7.19438 | 36047 ft | 469 kts | 28° |
| 2026-04-29 10:23 | 43.17452 | 7.23903 | 36054 ft | 469 kts | 28° |
| 2026-04-29 10:23 | 43.23109 | 7.28377 | 36049 ft | 469 kts | 28° |
| 2026-04-29 10:24 | 43.28759 | 7.32861 | 36051 ft | 469 kts | 28° |
| 2026-04-29 10:24 | 43.32499 | 7.35836 | 36055 ft | 469 kts | 28° |
| 2026-04-29 10:25 | 43.36151 | 7.38740 | 36058 ft | 469 kts | 27° |
| 2026-04-29 10:25 | 43.41797 | 7.43232 | 36063 ft | 469 kts | 28° |
| 2026-04-29 10:26 | 43.47439 | 7.47746 | 36064 ft | 469 kts | 28° |
| 2026-04-29 10:26 | 43.53075 | 7.52257 | 36068 ft | 469 kts | 27° |
| 2026-04-29 10:27 | 43.61533 | 7.59039 | 36064 ft | 469 kts | 27° |
| 2026-04-29 10:28 | 43.67165 | 7.63575 | 36064 ft | 468 kts | 27° |
| 2026-04-29 10:28 | 43.72793 | 7.68115 | 36068 ft | 468 kts | 27° |
| 2026-04-29 10:29 | 43.78415 | 7.72660 | 36070 ft | 468 kts | 27° |
| 2026-04-29 10:29 | 43.84201 | 7.76719 | 36071 ft | 464 kts | 18° |
| 2026-04-29 10:30 | 43.90243 | 7.79902 | 36071 ft | 464 kts | 18° |
| 2026-04-29 10:30 | 43.96242 | 7.83067 | 36072 ft | 464 kts | 18° |
| 2026-04-29 10:31 | 44.02277 | 7.86257 | 36072 ft | 464 kts | 18° |
| 2026-04-29 10:31 | 44.08310 | 7.89466 | 36069 ft | 464 kts | 18° |
| 2026-04-29 10:32 | 44.14339 | 7.92681 | 36073 ft | 465 kts | 18° |
| 2026-04-29 10:32 | 44.20375 | 7.95897 | 36081 ft | 464 kts | 18° |
| 2026-04-29 10:33 | 44.26403 | 7.99128 | 36088 ft | 464 kts | 18° |
| 2026-04-29 10:33 | 44.32428 | 8.02369 | 36095 ft | 464 kts | 18° |
| 2026-04-29 10:34 | 44.38458 | 8.05599 | 36106 ft | 464 kts | 17° |
| 2026-04-29 10:34 | 44.44485 | 8.08833 | 36112 ft | 464 kts | 17° |
| 2026-04-29 10:35 | 44.50508 | 8.12075 | 36112 ft | 464 kts | 17° |
| 2026-04-29 10:35 | 44.56530 | 8.15334 | 36108 ft | 464 kts | 17° |
| 2026-04-29 10:36 | 44.62551 | 8.18601 | 36107 ft | 464 kts | 17° |
| 2026-04-29 10:36 | 44.68530 | 8.21849 | 36108 ft | 464 kts | 17° |
| 2026-04-29 10:37 | 44.74552 | 8.25125 | 36104 ft | 464 kts | 17° |
| 2026-04-29 10:37 | 44.80573 | 8.28402 | 36102 ft | 464 kts | 17° |
| 2026-04-29 10:38 | 44.86589 | 8.31684 | 36107 ft | 464 kts | 17° |
| 2026-04-29 10:38 | 44.92611 | 8.34989 | 36093 ft | 464 kts | 17° |
| 2026-04-29 10:39 | 44.98627 | 8.38303 | 36103 ft | 464 kts | 17° |
| 2026-04-29 10:39 | 45.04650 | 8.41626 | 36107 ft | 464 kts | 17° |
| 2026-04-29 10:40 | 45.10668 | 8.44936 | 36110 ft | 464 kts | 17° |
| 2026-04-29 10:40 | 45.16691 | 8.48256 | 36109 ft | 464 kts | 17° |
| 2026-04-29 10:41 | 45.22707 | 8.51588 | 36118 ft | 465 kts | 17° |
| 2026-04-29 10:41 | 45.28233 | 8.54662 | 36122 ft | 465 kts | 17° |
| 2026-04-29 10:42 | 45.34300 | 8.58038 | 36124 ft | 465 kts | 17° |
| 2026-04-29 10:42 | 45.40323 | 8.61397 | 36122 ft | 465 kts | 17° |
| 2026-04-29 10:43 | 45.46342 | 8.64759 | 36121 ft | 465 kts | 17° |
| 2026-04-29 10:43 | 45.52326 | 8.68107 | 36121 ft | 465 kts | 17° |
| 2026-04-29 10:44 | 45.58395 | 8.71514 | 36122 ft | 466 kts | 17° |
| 2026-04-29 10:44 | 45.64382 | 8.74888 | 36118 ft | 466 kts | 17° |
| 2026-04-29 10:45 | 45.70404 | 8.78292 | 36117 ft | 466 kts | 17° |
| 2026-04-29 10:45 | 45.76426 | 8.81711 | 36118 ft | 466 kts | 17° |
| 2026-04-29 10:46 | 45.82460 | 8.85132 | 36136 ft | 466 kts | 17° |
| 2026-04-29 10:46 | 45.88489 | 8.88547 | 36146 ft | 466 kts | 17° |
| 2026-04-29 10:47 | 45.94523 | 8.91982 | 36152 ft | 466 kts | 17° |
| 2026-04-29 10:47 | 46.00549 | 8.95415 | 36149 ft | 466 kts | 17° |
| 2026-04-29 10:48 | 46.06582 | 8.98871 | 36150 ft | 467 kts | 17° |
| 2026-04-29 10:48 | 46.12617 | 9.02288 | 36147 ft | 464 kts | 13° |
| 2026-04-29 10:49 | 46.18877 | 9.03754 | 36145 ft | 451 kts | 354° |
| 2026-04-29 10:49 | 46.25067 | 9.03049 | 36528 ft | 443 kts | 349° |
| 2026-04-29 10:49 | 46.28128 | 9.02643 | 36943 ft | 440 kts | 349° |
| 2026-04-29 10:50 | 46.31185 | 9.02244 | 37192 ft | 441 kts | 349° |
| 2026-04-29 10:50 | 46.34235 | 9.01843 | 37446 ft | 439 kts | 349° |
| 2026-04-29 10:50 | 46.37269 | 9.01438 | 37730 ft | 438 kts | 349° |
| 2026-04-29 10:50 | 46.40304 | 9.01027 | 38009 ft | 437 kts | 349° |
| 2026-04-29 10:51 | 46.43340 | 9.00612 | 38122 ft | 440 kts | 349° |
| 2026-04-29 10:51 | 46.49425 | 8.99791 | 38138 ft | 442 kts | 349° |
| 2026-04-29 10:52 | 46.55553 | 8.98974 | 38132 ft | 442 kts | 349° |
| 2026-04-29 10:52 | 46.61685 | 8.98154 | 38128 ft | 443 kts | 349° |
| 2026-04-29 10:53 | 46.67817 | 8.97322 | 38128 ft | 442 kts | 349° |
| 2026-04-29 10:53 | 46.73933 | 8.96489 | 38116 ft | 442 kts | 349° |
| 2026-04-29 10:54 | 46.80060 | 8.95652 | 38125 ft | 442 kts | 349° |
| 2026-04-29 10:54 | 46.86197 | 8.94809 | 38123 ft | 444 kts | 349° |
| 2026-04-29 10:55 | 46.92326 | 8.93971 | 38117 ft | 444 kts | 349° |
| 2026-04-29 10:55 | 46.98476 | 8.93129 | 38126 ft | 444 kts | 349° |
| 2026-04-29 10:56 | 47.04597 | 8.92288 | 38132 ft | 445 kts | 349° |
| 2026-04-29 10:56 | 47.10249 | 8.91506 | 38143 ft | 446 kts | 349° |
| 2026-04-29 10:57 | 47.16426 | 8.90651 | 38157 ft | 446 kts | 349° |
| 2026-04-29 10:57 | 47.22603 | 8.89802 | 38160 ft | 446 kts | 349° |
| 2026-04-29 10:58 | 47.28842 | 8.89537 | 38156 ft | 455 kts | 2° |
| 2026-04-29 10:58 | 47.35015 | 8.92016 | 38152 ft | 464 kts | 14° |
| 2026-04-29 10:59 | 47.41114 | 8.95177 | 38152 ft | 465 kts | 14° |
| 2026-04-29 10:59 | 47.47237 | 8.98310 | 38152 ft | 466 kts | 14° |
| 2026-04-29 11:00 | 47.53376 | 9.01456 | 38154 ft | 467 kts | 14° |
| 2026-04-29 11:00 | 47.59478 | 9.04614 | 38159 ft | 468 kts | 14° |
| 2026-04-29 11:01 | 47.65624 | 9.07810 | 38163 ft | 468 kts | 14° |
| 2026-04-29 11:01 | 47.71813 | 9.10740 | 38171 ft | 463 kts | 6° |
| 2026-04-29 11:02 | 47.78151 | 9.11918 | 38161 ft | 459 kts | 1° |
| 2026-04-29 11:02 | 47.84505 | 9.12945 | 38159 ft | 460 kts | 1° |
| 2026-04-29 11:03 | 47.90870 | 9.13996 | 38160 ft | 460 kts | 1° |
| 2026-04-29 11:03 | 47.97233 | 9.15054 | 38157 ft | 460 kts | 1° |
| 2026-04-29 11:04 | 48.03610 | 9.16115 | 38160 ft | 461 kts | 1° |
| 2026-04-29 11:04 | 48.09985 | 9.17175 | 38163 ft | 460 kts | 1° |
| 2026-04-29 11:05 | 48.15279 | 9.18054 | 38157 ft | 461 kts | 1° |
| 2026-04-29 11:05 | 48.22691 | 9.19244 | 38160 ft | 461 kts | 0° |
| 2026-04-29 11:06 | 48.29074 | 9.20200 | 38158 ft | 461 kts | 0° |
| 2026-04-29 11:06 | 48.34420 | 9.21004 | 38162 ft | 461 kts | 0° |
| 2026-04-29 11:07 | 48.40754 | 9.21985 | 38179 ft | 461 kts | 0° |
| 2026-04-29 11:07 | 48.47128 | 9.22972 | 38195 ft | 461 kts | 1° |
| 2026-04-29 11:08 | 48.53508 | 9.23971 | 38204 ft | 461 kts | 1° |
| 2026-04-29 11:08 | 48.59880 | 9.24982 | 38210 ft | 460 kts | 1° |
| 2026-04-29 11:09 | 48.66248 | 9.25984 | 38212 ft | 460 kts | 1° |
| 2026-04-29 11:09 | 48.72610 | 9.26978 | 38225 ft | 459 kts | 0° |
| 2026-04-29 11:10 | 48.78966 | 9.27969 | 38212 ft | 459 kts | 0° |
| 2026-04-29 11:10 | 48.85324 | 9.28965 | 38211 ft | 459 kts | 1° |
| 2026-04-29 11:11 | 48.91679 | 9.29971 | 38215 ft | 459 kts | 1° |
| 2026-04-29 11:11 | 48.98032 | 9.30986 | 38218 ft | 459 kts | 1° |
| 2026-04-29 11:12 | 49.04340 | 9.31990 | 38228 ft | 459 kts | 1° |
| 2026-04-29 11:12 | 49.10692 | 9.32999 | 38234 ft | 459 kts | 1° |
| 2026-04-29 11:13 | 49.17043 | 9.34008 | 38234 ft | 459 kts | 1° |
| 2026-04-29 11:13 | 49.23397 | 9.35033 | 38235 ft | 459 kts | 1° |
| 2026-04-29 11:14 | 49.29759 | 9.36058 | 38239 ft | 459 kts | 1° |
| 2026-04-29 11:14 | 49.36114 | 9.37079 | 38244 ft | 459 kts | 1° |
| 2026-04-29 11:15 | 49.42466 | 9.38106 | 38251 ft | 459 kts | 1° |
| 2026-04-29 11:15 | 49.48820 | 9.39130 | 38259 ft | 459 kts | 1° |
| 2026-04-29 11:16 | 49.55127 | 9.40158 | 38265 ft | 459 kts | 2° |
| 2026-04-29 11:16 | 49.61467 | 9.41199 | 38271 ft | 458 kts | 2° |
| 2026-04-29 11:17 | 49.67807 | 9.42257 | 38280 ft | 459 kts | 3° |
| 2026-04-29 11:17 | 49.74130 | 9.43619 | 38287 ft | 459 kts | 4° |
| 2026-04-29 11:18 | 49.80443 | 9.44996 | 38290 ft | 458 kts | 4° |
| 2026-04-29 11:18 | 49.86754 | 9.46359 | 38290 ft | 458 kts | 4° |
| 2026-04-29 11:19 | 49.93060 | 9.47709 | 38296 ft | 457 kts | 4° |
| 2026-04-29 11:19 | 49.99364 | 9.49048 | 38295 ft | 457 kts | 4° |
| 2026-04-29 11:20 | 50.05674 | 9.50236 | 38303 ft | 456 kts | 2° |
| 2026-04-29 11:20 | 50.11942 | 9.51197 | 38308 ft | 455 kts | 2° |
| 2026-04-29 11:21 | 50.18243 | 9.52139 | 38309 ft | 456 kts | 4° |
| 2026-04-29 11:21 | 50.24515 | 9.53865 | 38313 ft | 458 kts | 8° |
| 2026-04-29 11:22 | 50.30755 | 9.55817 | 38315 ft | 457 kts | 8° |
| 2026-04-29 11:22 | 50.36995 | 9.57762 | 38317 ft | 457 kts | 8° |
| 2026-04-29 11:23 | 50.43231 | 9.59706 | 38330 ft | 457 kts | 8° |
| 2026-04-29 11:23 | 50.49465 | 9.61651 | 38333 ft | 457 kts | 8° |
| 2026-04-29 11:24 | 50.55702 | 9.63612 | 38346 ft | 457 kts | 8° |
| 2026-04-29 11:24 | 50.61893 | 9.65570 | 38353 ft | 457 kts | 8° |
| 2026-04-29 11:25 | 50.68124 | 9.67537 | 38363 ft | 457 kts | 8° |
| 2026-04-29 11:25 | 50.74351 | 9.69514 | 38370 ft | 457 kts | 8° |
| 2026-04-29 11:26 | 50.83699 | 9.72482 | 38379 ft | 457 kts | 8° |
| 2026-04-29 11:26 | 50.89931 | 9.74469 | 38386 ft | 456 kts | 8° |
| 2026-04-29 11:27 | 50.96154 | 9.76460 | 38397 ft | 456 kts | 8° |
| 2026-04-29 11:27 | 51.02378 | 9.78455 | 38405 ft | 456 kts | 9° |
| 2026-04-29 11:28 | 51.08590 | 9.80446 | 38406 ft | 455 kts | 9° |
| 2026-04-29 11:28 | 51.14795 | 9.82440 | 38408 ft | 455 kts | 9° |
| 2026-04-29 11:29 | 51.20951 | 9.84439 | 38416 ft | 454 kts | 9° |
| 2026-04-29 11:29 | 51.27144 | 9.86445 | 38418 ft | 454 kts | 9° |
| 2026-04-29 11:30 | 51.33327 | 9.88450 | 38422 ft | 453 kts | 9° |
| 2026-04-29 11:30 | 51.39499 | 9.90459 | 38428 ft | 453 kts | 9° |
| 2026-04-29 11:31 | 51.45670 | 9.92473 | 38428 ft | 452 kts | 9° |
| 2026-04-29 11:31 | 51.51829 | 9.94496 | 38444 ft | 452 kts | 9° |
| 2026-04-29 11:32 | 51.57987 | 9.96525 | 38445 ft | 451 kts | 9° |
| 2026-04-29 11:32 | 51.64134 | 9.98549 | 38450 ft | 451 kts | 9° |
| 2026-04-29 11:33 | 51.70276 | 10.00581 | 38458 ft | 450 kts | 9° |
| 2026-04-29 11:33 | 51.76372 | 10.02600 | 38461 ft | 450 kts | 9° |
| 2026-04-29 11:34 | 51.82505 | 10.04623 | 38468 ft | 449 kts | 9° |
| 2026-04-29 11:34 | 51.88621 | 10.06657 | 38473 ft | 449 kts | 9° |
| 2026-04-29 11:35 | 51.94733 | 10.08710 | 38471 ft | 448 kts | 9° |
| 2026-04-29 11:35 | 52.00835 | 10.10767 | 38480 ft | 448 kts | 9° |
| 2026-04-29 11:36 | 52.06929 | 10.12814 | 38488 ft | 447 kts | 10° |
| 2026-04-29 11:36 | 52.13030 | 10.14857 | 38500 ft | 447 kts | 10° |
| 2026-04-29 11:37 | 52.19117 | 10.16909 | 38507 ft | 447 kts | 10° |
| 2026-04-29 11:37 | 52.25208 | 10.18968 | 38514 ft | 447 kts | 10° |
| 2026-04-29 11:38 | 52.31252 | 10.21025 | 38515 ft | 446 kts | 10° |
| 2026-04-29 11:38 | 52.37328 | 10.23105 | 38523 ft | 446 kts | 10° |
| 2026-04-29 11:39 | 52.43396 | 10.25185 | 38522 ft | 445 kts | 10° |
| 2026-04-29 11:39 | 52.49462 | 10.27266 | 38525 ft | 445 kts | 10° |
| 2026-04-29 11:40 | 52.55524 | 10.29338 | 38528 ft | 445 kts | 10° |
| 2026-04-29 11:40 | 52.58536 | 10.30367 | 38323 ft | 442 kts | 10° |
| 2026-04-29 11:40 | 52.61565 | 10.31405 | 37502 ft | 446 kts | 10° |
| 2026-04-29 11:41 | 52.64603 | 10.32454 | 36720 ft | 445 kts | 11° |
| 2026-04-29 11:41 | 52.67621 | 10.33501 | 35970 ft | 441 kts | 11° |
| 2026-04-29 11:41 | 52.70607 | 10.34540 | 35242 ft | 437 kts | 11° |
| 2026-04-29 11:41 | 52.73568 | 10.35570 | 34548 ft | 433 kts | 11° |
| 2026-04-29 11:42 | 52.76506 | 10.36592 | 33732 ft | 429 kts | 11° |
| 2026-04-29 11:42 | 52.79411 | 10.37605 | 32927 ft | 425 kts | 11° |
| 2026-04-29 11:42 | 52.82288 | 10.38610 | 32131 ft | 420 kts | 11° |
| 2026-04-29 11:42 | 52.85135 | 10.39602 | 31362 ft | 416 kts | 11° |
| 2026-04-29 11:43 | 52.87951 | 10.40579 | 30615 ft | 411 kts | 11° |
| 2026-04-29 11:43 | 52.90735 | 10.41548 | 29762 ft | 407 kts | 11° |
| 2026-04-29 11:43 | 52.93495 | 10.42514 | 28916 ft | 404 kts | 11° |
| 2026-04-29 11:43 | 52.96230 | 10.43474 | 28093 ft | 400 kts | 11° |
| 2026-04-29 11:44 | 52.98904 | 10.44414 | 27304 ft | 396 kts | 11° |
| 2026-04-29 11:44 | 53.01588 | 10.45358 | 26527 ft | 393 kts | 11° |
| 2026-04-29 11:44 | 53.04250 | 10.46293 | 25769 ft | 389 kts | 11° |
| 2026-04-29 11:44 | 53.06880 | 10.47216 | 25193 ft | 382 kts | 11° |